Aurora, Illinois
Current Conditions -  °F | °C
As of 7:52 PM on Sunday 21 Dec 2014 (Local Time) from KARR Reporting Station
Haze Haze  
Wind Chill: 29°   Ceiling: 2500
Heat Index: 36°   Visibility: 6mi
Dew Point: 29°   Wind: 9mph
Humidity: 76%   Direction: 140°SE
Pressure: 30.04"   Gusts: NA
Location:  41.76°N, 88.31°W
Report Text: KARR 220152Z 14008KT 6SM HZ OVC025 02/M02 A3004 RMK AO2 SLP180 T00221017
Loading
Personal Weather Stations






























Interactive Weather Map New forecast layout! Learn more

10-Day Weather Forecast

Advertisements
Track Severe Weather on mobile